Cedar East Bethel, Minnesota
Current Conditions -  °F | °C
As of 8:45 AM on Sunday 21 Dec 2014 (Local Time) from KANE Reporting Station
Light Rain Light Rain  
Wind Chill: 26°   Ceiling: 400
Heat Index: 34°   Visibility: 1.5mi
Dew Point: 34°   Wind: 10mph
Humidity: 100%   Direction: 160°SSE
Pressure: 29.86"   Gusts: 17mph
Location:  45.3385°N, 93.2617°W
Report Text: KANE 211445Z 16009G15KT 1 1/2SM -RA OVC004 01/01 A2986
Loading
Personal Weather Stations






























Interactive Weather Map New forecast layout! Learn more

10-Day Weather Forecast

Advertisements
Track Severe Weather on mobile